createdAt,value
2018-08-18T00:00:14.582Z,18.60
2018-08-18T00:02:43.313Z,18.50
2018-08-18T00:05:12.654Z,18.40
2018-08-18T00:07:41.202Z,18.30
2018-08-18T00:10:10.418Z,18.20
2018-08-18T00:12:38.909Z,18.20
2018-08-18T00:15:08.708Z,18.20
2018-08-18T00:17:37.609Z,18.20
2018-08-18T00:20:08.674Z,18.20
2018-08-18T00:22:37.254Z,18.20
2018-08-18T00:25:06.385Z,18.10
2018-08-18T00:27:34.797Z,18.10
2018-08-18T00:30:08.571Z,18.00
2018-08-18T00:32:37.063Z,18.00
2018-08-18T00:35:07.044Z,17.90
2018-08-18T00:37:35.779Z,18.00
2018-08-18T00:40:04.831Z,18.00
2018-08-18T00:42:33.314Z,18.00
2018-08-18T00:45:01.895Z,17.90
2018-08-18T00:47:30.282Z,17.90
2018-08-18T00:49:58.662Z,17.80
2018-08-18T00:52:27.090Z,17.70
2018-08-18T00:54:55.468Z,17.80
2018-08-18T00:57:29.244Z,17.80
2018-08-18T00:59:57.907Z,17.70
2018-08-18T01:02:26.817Z,17.70
2018-08-18T01:04:55.297Z,17.60
2018-08-18T01:07:24.576Z,17.60
2018-08-18T01:09:53.064Z,17.60
2018-08-18T01:12:21.645Z,17.60
2018-08-18T01:14:50.192Z,17.50
2018-08-18T01:17:18.711Z,17.50
2018-08-18T01:19:47.214Z,17.50
2018-08-18T01:22:15.627Z,17.40
2018-08-18T01:24:44.039Z,17.50
2018-08-18T01:27:12.498Z,17.50
2018-08-18T01:29:41.048Z,17.40
2018-08-18T01:32:09.681Z,17.40
2018-08-18T01:34:38.165Z,17.40
2018-08-18T01:37:12.123Z,17.30
2018-08-18T01:39:40.497Z,17.40
2018-08-18T01:42:09.103Z,17.30
2018-08-18T01:44:37.477Z,17.30
2018-08-18T01:47:09.074Z,17.30
2018-08-18T01:49:37.999Z,17.30
2018-08-18T01:52:13.813Z,17.20
2018-08-18T01:54:42.638Z,17.20
2018-08-18T01:57:11.996Z,17.20
2018-08-18T01:59:42.434Z,17.20
2018-08-18T02:02:12.936Z,17.20
2018-08-18T02:04:41.747Z,17.20
2018-08-18T02:07:29.246Z,17.10
2018-08-18T02:09:58.168Z,17.10
2018-08-18T02:12:27.281Z,17.10
2018-08-18T02:14:56.025Z,17.10
2018-08-18T02:17:25.856Z,17.10
2018-08-18T02:19:54.985Z,17.10
2018-08-18T02:22:24.156Z,17.00
2018-08-18T02:24:52.566Z,17.00
2018-08-18T02:27:21.140Z,17.00
2018-08-18T02:30:01.634Z,16.90
2018-08-18T02:32:31.238Z,16.90
2018-08-18T02:34:59.716Z,16.80
2018-08-18T02:37:28.980Z,16.80
2018-08-18T02:39:57.575Z,16.80
2018-08-18T02:42:26.021Z,16.80
2018-08-18T02:44:54.505Z,16.70
2018-08-18T02:47:23.522Z,16.70
2018-08-18T02:49:53.093Z,16.70
2018-08-18T02:52:24.473Z,16.70
2018-08-18T02:54:58.575Z,16.70
2018-08-18T02:57:31.581Z,16.60
2018-08-18T03:00:02.100Z,16.70
2018-08-18T03:02:30.551Z,16.60
2018-08-18T03:04:59.094Z,16.60
2018-08-18T03:07:31.146Z,16.60
2018-08-18T03:09:59.619Z,16.60
2018-08-18T03:12:32.272Z,16.50
2018-08-18T03:15:00.646Z,16.50
2018-08-18T03:17:29.078Z,16.60
2018-08-18T03:19:57.484Z,16.60
2018-08-18T03:22:30.074Z,16.50
2018-08-18T03:24:58.456Z,16.50
2018-08-18T03:27:26.852Z,16.50
2018-08-18T03:29:55.254Z,16.50
2018-08-18T03:32:23.653Z,16.50
2018-08-18T03:34:52.046Z,16.50
2018-08-18T03:37:26.261Z,16.50
2018-08-18T03:39:55.131Z,16.50
2018-08-18T03:42:28.184Z,16.50
2018-08-18T03:44:57.051Z,16.50
2018-08-18T03:47:25.653Z,16.50
2018-08-18T03:49:54.044Z,16.40
2018-08-18T03:52:22.462Z,16.40
2018-08-18T03:54:50.868Z,16.40
2018-08-18T03:57:19.365Z,16.40
2018-08-18T03:59:47.760Z,16.40
2018-08-18T04:02:16.211Z,16.30
2018-08-18T04:04:44.666Z,16.30
2018-08-18T04:07:13.074Z,16.30
2018-08-18T04:09:41.729Z,16.40
2018-08-18T04:12:11.130Z,16.40
2018-08-18T04:14:40.785Z,16.50
2018-08-18T04:17:40.226Z,16.40
2018-08-18T04:20:08.667Z,16.40
2018-08-18T04:22:37.113Z,16.30
2018-08-18T04:25:05.859Z,16.30
2018-08-18T04:27:44.451Z,16.20
2018-08-18T04:30:15.780Z,16.20
2018-08-18T04:32:54.256Z,16.20
2018-08-18T04:35:24.048Z,16.20
2018-08-18T04:37:53.442Z,16.20
2018-08-18T04:40:22.535Z,16.20
2018-08-18T04:42:51.077Z,16.30
2018-08-18T04:45:20.750Z,16.30
2018-08-18T04:47:49.270Z,16.40
2018-08-18T04:50:17.664Z,16.50
2018-08-18T04:52:46.101Z,16.50
2018-08-18T04:55:15.363Z,16.60
2018-08-18T04:57:43.804Z,16.60
2018-08-18T05:00:13.973Z,16.70
2018-08-18T05:02:59.662Z,16.80
2018-08-18T05:05:29.311Z,17.00
2018-08-18T05:07:58.580Z,17.00
2018-08-18T05:10:27.439Z,17.20
2018-08-18T05:12:55.888Z,17.20
2018-08-18T05:15:24.636Z,17.40
2018-08-18T05:17:53.120Z,17.50
2018-08-18T05:20:23.384Z,17.60
2018-08-18T05:22:51.848Z,17.70
2018-08-18T05:25:27.021Z,17.80
2018-08-18T05:27:55.665Z,18.00
2018-08-18T05:30:24.235Z,18.10
2018-08-18T05:32:52.685Z,18.20
2018-08-18T05:35:21.138Z,18.30
2018-08-18T05:37:49.582Z,18.40
2018-08-18T05:40:18.027Z,18.60
2018-08-18T05:42:46.776Z,18.50
2018-08-18T05:45:24.680Z,18.60
2018-08-18T05:47:53.704Z,19.00
2018-08-18T05:50:24.239Z,19.10
2018-08-18T05:53:27.524Z,19.30
2018-08-18T05:55:56.169Z,19.50
2018-08-18T05:58:24.670Z,19.60
2018-08-18T06:01:01.144Z,20.10
2018-08-18T06:03:29.541Z,20.50
2018-08-18T06:05:58.432Z,21.00
2018-08-18T06:08:27.008Z,21.40
2018-08-18T06:10:55.426Z,22.20
2018-08-18T06:13:23.911Z,22.80
2018-08-18T06:16:08.143Z,23.10
2018-08-18T06:18:38.659Z,22.90
2018-08-18T06:21:07.808Z,23.10
2018-08-18T06:23:37.391Z,23.50
2018-08-18T06:26:06.366Z,23.60
2018-08-18T06:28:35.746Z,23.90
2018-08-18T06:31:04.608Z,23.80
2018-08-18T06:33:33.213Z,23.90
2018-08-18T06:36:02.258Z,24.10
2018-08-18T06:38:30.718Z,24.00
2018-08-18T06:41:01.347Z,24.30
2018-08-18T06:43:31.393Z,24.90
2018-08-18T06:46:00.410Z,25.20
2018-08-18T06:48:32.626Z,25.50
2018-08-18T06:51:01.083Z,26.00
2018-08-18T06:53:30.646Z,25.90
2018-08-18T06:56:00.526Z,26.30
2018-08-18T06:58:29.024Z,26.30
2018-08-18T07:00:57.546Z,26.10
2018-08-18T07:03:36.801Z,25.90
2018-08-18T07:06:06.063Z,25.80
2018-08-18T07:09:07.797Z,26.40
2018-08-18T07:11:36.137Z,26.70
2018-08-18T07:14:04.606Z,27.10
2018-08-18T07:16:33.026Z,27.00
2018-08-18T07:19:01.465Z,26.50
2018-08-18T07:21:29.850Z,26.90
2018-08-18T07:23:59.287Z,26.50
2018-08-18T07:26:27.718Z,26.60
2018-08-18T07:28:56.251Z,25.60
2018-08-18T07:31:24.538Z,25.80
2018-08-18T07:33:53.014Z,26.70
2018-08-18T07:36:21.486Z,27.60
2018-08-18T07:38:49.964Z,27.40
2018-08-18T07:41:18.727Z,27.50
2018-08-18T07:43:47.222Z,28.40
2018-08-18T07:46:15.660Z,28.60
2018-08-18T07:48:44.039Z,29.40
2018-08-18T07:51:12.465Z,30.10
2018-08-18T07:53:40.964Z,30.30
2018-08-18T07:56:09.543Z,29.60
2018-08-18T07:58:38.439Z,29.10
2018-08-18T08:01:07.352Z,29.30
2018-08-18T08:03:35.774Z,29.90
2018-08-18T08:06:04.182Z,29.10
2018-08-18T08:08:37.823Z,28.20
2018-08-18T08:11:11.494Z,28.20
2018-08-18T08:13:39.946Z,29.10
2018-08-18T08:16:08.664Z,29.10
2018-08-18T08:18:37.080Z,30.20
2018-08-18T08:21:05.546Z,30.10
2018-08-18T08:23:33.998Z,30.40
2018-08-18T08:26:02.463Z,30.20
2018-08-18T08:28:30.966Z,30.70
2018-08-18T08:30:59.404Z,30.80
2018-08-18T08:33:33.829Z,31.00
2018-08-18T08:36:02.366Z,29.80
2018-08-18T08:38:56.414Z,30.30
2018-08-18T08:41:27.613Z,31.30
2018-08-18T08:43:56.033Z,32.60
2018-08-18T08:46:24.560Z,32.90
2018-08-18T08:48:55.754Z,32.50
2018-08-18T08:51:24.442Z,32.10
2018-08-18T08:53:54.618Z,31.20
2018-08-18T08:56:28.550Z,30.50
2018-08-18T08:58:57.182Z,31.80
2018-08-18T09:01:25.561Z,32.60
2018-08-18T09:03:53.974Z,32.30
2018-08-18T09:06:22.410Z,32.60
2018-08-18T09:08:56.163Z,33.30
2018-08-18T09:11:24.626Z,33.20
2018-08-18T09:14:00.116Z,33.10
2018-08-18T09:16:30.361Z,32.80
2018-08-18T09:18:59.147Z,32.30
2018-08-18T09:21:29.371Z,31.80
2018-08-18T09:23:57.847Z,32.30
2018-08-18T09:26:26.366Z,33.40
2018-08-18T09:28:54.765Z,33.60
2018-08-18T09:31:23.416Z,33.60
2018-08-18T09:33:51.957Z,32.80
2018-08-18T09:36:20.469Z,33.10
2018-08-18T09:38:48.943Z,33.50
2018-08-18T09:41:17.488Z,33.40
2018-08-18T09:43:45.977Z,33.20
2018-08-18T09:46:14.682Z,32.60
2018-08-18T09:48:43.138Z,32.60
2018-08-18T09:51:11.608Z,32.60
2018-08-18T09:53:40.226Z,32.30
2018-08-18T09:56:08.712Z,32.30
2018-08-18T09:58:37.199Z,31.90
2018-08-18T10:01:05.844Z,31.60
2018-08-18T10:03:34.271Z,31.70
2018-08-18T10:06:02.752Z,31.60
2018-08-18T10:08:31.162Z,31.60
2018-08-18T10:10:59.639Z,31.00
2018-08-18T10:13:28.108Z,31.00
2018-08-18T10:15:56.596Z,30.90
2018-08-18T10:18:25.415Z,31.10
2018-08-18T10:20:53.940Z,31.40
2018-08-18T10:23:22.480Z,31.60
2018-08-18T10:25:50.957Z,31.70
2018-08-18T10:28:19.797Z,31.90
2018-08-18T10:30:48.236Z,31.60
2018-08-18T10:33:16.759Z,31.30
2018-08-18T10:35:45.216Z,30.80
2018-08-18T10:38:13.641Z,30.60
2018-08-18T10:40:42.093Z,30.40
2018-08-18T10:43:10.503Z,30.70
2018-08-18T10:45:39.562Z,30.90
2018-08-18T10:48:08.030Z,30.60
2018-08-18T10:51:46.349Z,30.40
2018-08-18T10:54:14.643Z,30.80
2018-08-18T10:56:43.056Z,32.60
2018-08-18T10:59:18.580Z,33.10
2018-08-18T11:02:02.074Z,33.80
2018-08-18T11:04:33.009Z,34.10
2018-08-18T11:07:01.517Z,33.60
2018-08-18T11:09:30.911Z,34.30
2018-08-18T11:11:59.374Z,34.80
2018-08-18T11:14:27.760Z,34.50
2018-08-18T11:16:56.203Z,34.50
2018-08-18T11:19:24.670Z,34.40
2018-08-18T11:22:04.919Z,35.00
2018-08-18T11:24:33.439Z,35.80
2018-08-18T11:27:01.841Z,35.80
2018-08-18T11:29:30.400Z,36.10
2018-08-18T11:31:58.799Z,35.90
2018-08-18T11:34:27.329Z,36.40
2018-08-18T11:37:03.332Z,37.00
2018-08-18T11:39:32.261Z,37.00
2018-08-18T11:42:00.955Z,37.70
2018-08-18T11:44:29.473Z,35.60
2018-08-18T11:46:57.995Z,34.40
2018-08-18T11:49:26.493Z,36.30
2018-08-18T11:51:55.645Z,34.70
2018-08-18T11:54:24.293Z,36.00
2018-08-18T11:56:54.695Z,37.30
2018-08-18T11:59:23.273Z,37.90
2018-08-18T12:01:54.636Z,36.60
2018-08-18T12:04:23.833Z,37.90
2018-08-18T12:06:57.755Z,38.30
2018-08-18T12:09:26.344Z,38.90
2018-08-18T12:11:54.961Z,39.20
2018-08-18T12:14:23.485Z,38.70
2018-08-18T12:16:52.215Z,38.60
2018-08-18T12:19:20.740Z,39.50
2018-08-18T12:21:49.209Z,37.00
2018-08-18T12:24:20.197Z,38.10
2018-08-18T12:26:59.852Z,38.20
2018-08-18T12:29:29.975Z,38.40
2018-08-18T12:31:58.477Z,38.90
2018-08-18T12:34:26.957Z,39.50
2018-08-18T12:36:55.440Z,40.00
2018-08-18T12:39:23.803Z,39.20
2018-08-18T12:41:52.291Z,38.80
2018-08-18T12:44:24.936Z,38.70
2018-08-18T12:46:53.395Z,38.70
2018-08-18T12:49:21.901Z,38.40
2018-08-18T12:51:50.357Z,37.70
2018-08-18T12:54:18.815Z,38.30
2018-08-18T12:56:47.236Z,39.50
2018-08-18T12:59:15.693Z,38.90
2018-08-18T13:01:45.542Z,38.40
2018-08-18T13:04:15.394Z,38.80
2018-08-18T13:06:45.005Z,39.60
2018-08-18T13:09:14.782Z,39.50
2018-08-18T13:11:44.587Z,39.50
2018-08-18T13:14:19.488Z,39.70
2018-08-18T13:16:47.931Z,40.30
2018-08-18T13:19:18.407Z,40.30
2018-08-18T13:21:46.981Z,40.00
2018-08-18T13:24:15.649Z,40.00
2018-08-18T13:26:44.126Z,39.00
2018-08-18T13:29:12.596Z,38.50
2018-08-18T13:31:42.837Z,38.40
2018-08-18T13:34:13.227Z,39.30
2018-08-18T13:36:42.751Z,38.70
2018-08-18T13:39:14.089Z,38.40
2018-08-18T13:41:43.293Z,36.10
2018-08-18T13:44:11.781Z,34.50
2018-08-18T13:46:49.444Z,34.60
2018-08-18T13:49:20.108Z,34.50
2018-08-18T13:51:48.744Z,33.50
2018-08-18T13:54:17.245Z,32.40
2018-08-18T13:56:45.693Z,32.20
2018-08-18T13:59:14.160Z,32.70
2018-08-18T14:01:44.013Z,33.00
2018-08-18T14:04:20.606Z,33.00
2018-08-18T14:06:55.778Z,33.00
2018-08-18T14:09:24.324Z,32.60
2018-08-18T14:12:00.628Z,32.20
2018-08-18T14:14:29.060Z,31.90
2018-08-18T14:16:57.564Z,32.00
2018-08-18T14:19:26.040Z,32.30
2018-08-18T14:21:59.562Z,31.50
2018-08-18T14:24:33.189Z,31.50
2018-08-18T14:27:03.054Z,31.20
2018-08-18T14:29:32.721Z,31.10
2018-08-18T14:32:01.783Z,31.20
2018-08-18T14:34:30.271Z,31.10
2018-08-18T14:37:03.823Z,31.00
2018-08-18T14:39:37.552Z,31.20
2018-08-18T14:42:06.773Z,31.20
2018-08-18T14:44:35.664Z,31.00
2018-08-18T14:47:04.190Z,30.80
2018-08-18T14:49:32.713Z,30.90
2018-08-18T14:52:01.192Z,30.90
2018-08-18T14:54:30.676Z,30.60
2018-08-18T14:57:00.828Z,30.40
2018-08-18T14:59:33.581Z,30.40
2018-08-18T15:02:03.711Z,30.50
2018-08-18T15:04:32.591Z,30.10
2018-08-18T15:07:01.109Z,30.10
2018-08-18T15:09:43.952Z,30.00
2018-08-18T15:12:12.443Z,29.90
2018-08-18T15:14:40.900Z,29.80
2018-08-18T15:17:09.403Z,29.70
2018-08-18T15:19:38.047Z,29.70
2018-08-18T15:22:08.991Z,29.70
2018-08-18T15:24:37.457Z,29.50
2018-08-18T15:27:06.164Z,29.30
2018-08-18T15:29:34.606Z,29.20
2018-08-18T15:32:03.237Z,29.00
2018-08-18T15:34:31.724Z,28.80
2018-08-18T15:37:00.185Z,28.80
2018-08-18T15:39:29.543Z,28.90
2018-08-18T15:41:59.331Z,28.90
2018-08-18T15:44:28.004Z,28.90
2018-08-18T15:46:57.045Z,29.00
2018-08-18T15:49:26.916Z,29.00
2018-08-18T15:51:55.839Z,29.00
2018-08-18T15:54:24.925Z,29.10
2018-08-18T15:56:53.358Z,29.10
2018-08-18T15:59:21.855Z,28.90
2018-08-18T16:01:50.313Z,28.90
2018-08-18T16:04:18.730Z,28.90
2018-08-18T16:06:47.376Z,28.80
2018-08-18T16:09:15.824Z,28.70
2018-08-18T16:11:44.296Z,28.80
2018-08-18T16:14:12.771Z,28.80
2018-08-18T16:16:55.447Z,28.90
2018-08-18T16:19:24.191Z,28.80
2018-08-18T16:21:52.688Z,28.80
2018-08-18T16:24:30.285Z,28.90
2018-08-18T16:26:58.821Z,29.00
2018-08-18T16:29:27.291Z,29.00
2018-08-18T16:32:12.194Z,28.80
2018-08-18T16:34:41.459Z,28.70
2018-08-18T16:37:09.939Z,28.80
2018-08-18T16:39:38.439Z,28.90
2018-08-18T16:42:06.962Z,29.00
2018-08-18T16:44:35.424Z,29.10
2018-08-18T16:47:05.338Z,29.20
2018-08-18T16:49:33.873Z,29.20
2018-08-18T16:52:02.398Z,29.20
2018-08-18T16:54:31.562Z,29.20
2018-08-18T16:57:00.141Z,29.20
2018-08-18T16:59:29.141Z,29.30
2018-08-18T17:01:57.812Z,29.10
2018-08-18T17:04:32.690Z,29.10
2018-08-18T17:07:02.230Z,29.00
2018-08-18T17:09:38.456Z,28.80
2018-08-18T17:12:19.434Z,28.80
2018-08-18T17:14:48.433Z,28.80
2018-08-18T17:17:16.972Z,28.80
2018-08-18T17:19:47.056Z,28.60
2018-08-18T17:22:15.909Z,28.50
2018-08-18T17:24:50.976Z,28.60
2018-08-18T17:27:19.489Z,28.60
2018-08-18T17:29:49.738Z,28.70
2018-08-18T17:32:18.213Z,28.70
2018-08-18T17:34:46.755Z,28.70
2018-08-18T17:37:15.159Z,28.70
2018-08-18T17:39:43.554Z,28.70
2018-08-18T17:42:12.042Z,28.80
2018-08-18T17:44:40.515Z,28.80
2018-08-18T17:47:10.442Z,28.70
2018-08-18T17:50:13.643Z,28.60
2018-08-18T17:52:42.425Z,28.50
2018-08-18T17:55:16.590Z,28.40
2018-08-18T17:57:45.196Z,27.80
2018-08-18T18:00:29.610Z,27.70
2018-08-18T18:02:59.595Z,27.60
2018-08-18T18:05:29.913Z,27.40
2018-08-18T18:08:01.839Z,27.20
2018-08-18T18:10:32.558Z,27.00
2018-08-18T18:13:01.123Z,26.90
2018-08-18T18:15:31.360Z,26.70
2018-08-18T18:17:59.964Z,26.60
2018-08-18T18:20:30.206Z,26.60
2018-08-18T18:22:58.779Z,26.40
2018-08-18T18:25:27.232Z,26.30
2018-08-18T18:27:55.704Z,26.20
2018-08-18T18:30:26.688Z,26.00
2018-08-18T18:32:55.183Z,25.90
2018-08-18T18:35:24.323Z,25.90
2018-08-18T18:37:53.283Z,25.70
2018-08-18T18:40:21.738Z,25.70
2018-08-18T18:42:50.439Z,25.60
2018-08-18T18:45:19.041Z,25.60
2018-08-18T18:47:47.587Z,25.50
2018-08-18T18:50:17.870Z,25.40
2018-08-18T18:52:46.758Z,25.20
2018-08-18T18:55:15.596Z,25.20
2018-08-18T18:58:00.739Z,25.10
2018-08-18T19:00:29.567Z,25.00
2018-08-18T19:02:58.074Z,25.00
2018-08-18T19:05:27.751Z,24.90
2018-08-18T19:07:59.718Z,24.90
2018-08-18T19:10:28.271Z,24.80
2018-08-18T19:12:57.471Z,24.80
2018-08-18T19:15:27.049Z,24.70
2018-08-18T19:17:55.528Z,24.60
2018-08-18T19:20:25.950Z,24.50
2018-08-18T19:23:05.748Z,24.50
2018-08-18T19:25:35.264Z,24.50
2018-08-18T19:28:03.752Z,24.40
2018-08-18T19:30:33.230Z,24.40
2018-08-18T19:33:01.864Z,24.30
2018-08-18T19:35:36.534Z,24.10
2018-08-18T19:38:05.940Z,24.10
2018-08-18T19:40:35.597Z,24.00
2018-08-18T19:43:08.143Z,24.00
2018-08-18T19:45:36.678Z,24.00
2018-08-18T19:48:05.186Z,24.00
2018-08-18T19:50:33.621Z,24.00
2018-08-18T19:53:07.490Z,24.00
2018-08-18T19:55:35.921Z,23.90
2018-08-18T19:58:04.535Z,23.90
2018-08-18T20:00:33.118Z,23.80
2018-08-18T20:03:03.924Z,23.80
2018-08-18T20:05:32.460Z,23.90
2018-08-18T20:08:00.895Z,23.80
2018-08-18T20:10:29.416Z,23.80
2018-08-18T20:12:58.046Z,23.80
2018-08-18T20:15:26.499Z,23.70
2018-08-18T20:17:55.050Z,23.70
2018-08-18T20:20:24.646Z,23.70
2018-08-18T20:22:54.177Z,23.60
2018-08-18T20:25:22.685Z,23.60
2018-08-18T20:27:51.356Z,23.50
2018-08-18T20:30:19.857Z,23.50
2018-08-18T20:32:48.309Z,23.50
2018-08-18T20:35:16.789Z,23.50
2018-08-18T20:37:45.297Z,23.40
2018-08-18T20:40:13.808Z,23.40
2018-08-18T20:42:43.377Z,23.30
2018-08-18T20:45:12.678Z,23.30
2018-08-18T20:47:42.920Z,23.20
2018-08-18T20:50:12.060Z,23.10
2018-08-18T20:52:41.051Z,23.10
2018-08-18T20:55:10.205Z,23.00
2018-08-18T20:57:38.675Z,23.00
2018-08-18T21:00:10.469Z,22.90
2018-08-18T21:02:38.942Z,22.80
2018-08-18T21:05:09.642Z,22.60
2018-08-18T21:07:38.110Z,22.50
2018-08-18T21:10:09.921Z,22.50
2018-08-18T21:12:46.100Z,22.30
2018-08-18T21:15:15.060Z,22.30
2018-08-18T21:17:43.546Z,22.30
2018-08-18T21:20:15.896Z,22.30
2018-08-18T21:22:44.363Z,22.20
2018-08-18T21:25:13.768Z,22.20
2018-08-18T21:27:42.616Z,22.10
2018-08-18T21:30:15.289Z,22.00
2018-08-18T21:32:43.757Z,21.90
2018-08-18T21:35:12.257Z,21.90
2018-08-18T21:37:40.725Z,21.90
2018-08-18T21:40:10.220Z,21.80
2018-08-18T21:42:38.761Z,21.70
2018-08-18T21:45:10.152Z,21.60
2018-08-18T21:47:38.943Z,21.50
2018-08-18T21:50:07.528Z,21.40
2018-08-18T21:52:36.300Z,21.50
2018-08-18T21:55:04.985Z,21.40
2018-08-18T21:57:44.884Z,21.40
2018-08-18T22:00:13.487Z,21.40
2018-08-18T22:02:42.873Z,21.40
2018-08-18T22:05:12.887Z,21.40
2018-08-18T22:07:46.603Z,21.30
2018-08-18T22:10:15.020Z,21.30
2018-08-18T22:12:46.359Z,21.30
2018-08-18T22:15:17.685Z,21.30
2018-08-18T22:17:47.073Z,21.30
2018-08-18T22:20:16.650Z,21.30
2018-08-18T22:22:45.475Z,21.30
2018-08-18T22:25:14.395Z,21.20
2018-08-18T22:27:42.873Z,21.20
2018-08-18T22:30:13.602Z,21.20
2018-08-18T22:32:43.357Z,21.10
2018-08-18T22:35:12.549Z,21.00
2018-08-18T22:37:41.339Z,21.00
2018-08-18T22:40:10.875Z,21.00
2018-08-18T22:42:39.529Z,20.90
2018-08-18T22:45:21.090Z,20.90
2018-08-18T22:47:49.535Z,20.90
2018-08-18T22:50:17.969Z,21.00
2018-08-18T22:52:49.729Z,20.90
2018-08-18T22:55:18.714Z,20.80
2018-08-18T22:58:02.282Z,20.80
2018-08-18T23:00:33.786Z,20.70
2018-08-18T23:03:02.293Z,20.60
2018-08-18T23:05:30.726Z,20.60
2018-08-18T23:07:59.105Z,20.50
2018-08-18T23:10:31.964Z,20.50
2018-08-18T23:13:01.546Z,20.50
2018-08-18T23:15:30.007Z,20.40
2018-08-18T23:17:58.492Z,20.40
2018-08-18T23:20:26.967Z,20.30
2018-08-18T23:22:58.409Z,20.30
2018-08-18T23:25:28.109Z,20.20
2018-08-18T23:27:56.801Z,20.10
2018-08-18T23:30:30.637Z,20.00
2018-08-18T23:32:59.215Z,20.00
2018-08-18T23:35:28.797Z,20.00
2018-08-18T23:37:57.787Z,19.80
2018-08-18T23:40:26.633Z,19.80
2018-08-18T23:42:55.281Z,19.80
2018-08-18T23:45:24.426Z,19.80
2018-08-18T23:47:58.167Z,19.80
2018-08-18T23:50:27.540Z,19.80
2018-08-18T23:52:57.986Z,19.80
2018-08-18T23:55:27.705Z,19.80
2018-08-18T23:57:56.399Z,19.80
